Time;durP1;ratioP1;P1;durP2;ratioP2;P2;SDS_P1;SDS_P2;PMS_P1;PMS_P2;Temp;Humidity;BMP_temperature;BMP_pressure;BME280_temperature;BME280_humidity;BME280_pressure;Samples;Min_cycle;Max_cycle;Signal;HPM_P1;HPM_P2
2022/10/13 00:00:32;;;;;;;18.52;4.68;;;;;;;9.69;86.88;101758.50;6131478;23;20057;-70
2022/10/13 00:03:00;;;;;;;20.02;5.35;;;;;;;9.64;87.61;101760.72;6106124;23;20001;-70
2022/10/13 00:05:26;;;;;;;31.52;4.32;;;;;;;9.78;87.00;101757.72;6131677;23;20088;-71
2022/10/13 00:07:52;;;;;;;17.85;4.25;;;;;;;9.68;87.56;101751.38;6131349;23;20002;-70
2022/10/13 00:10:17;;;;;;;21.35;4.55;;;;;;;9.91;86.61;101752.97;6105519;23;19994;-70
2022/10/13 00:12:43;;;;;;;14.52;4.30;;;;;;;9.92;85.41;101743.88;6131434;23;20077;-71
2022/10/13 00:15:08;;;;;;;28.75;4.78;;;;;;;9.75;86.92;101736.34;6105457;23;20010;-71
2022/10/13 00:17:35;;;;;;;18.30;4.88;;;;;;;9.76;86.53;101747.00;6131388;23;20002;-70
2022/10/13 00:20:02;;;;;;;28.10;5.55;;;;;;;9.80;86.94;101744.91;6105873;23;20008;-70
2022/10/13 00:22:27;;;;;;;25.52;6.13;;;;;;;9.90;86.32;101745.81;6105480;23;20007;-70
2022/10/13 00:24:53;;;;;;;17.15;4.63;;;;;;;9.79;86.23;101743.22;6105108;23;20113;-70
2022/10/13 00:27:19;;;;;;;21.20;4.88;;;;;;;9.62;87.32;101743.78;6105193;23;20001;-69
2022/10/13 00:29:45;;;;;;;17.92;4.38;;;;;;;9.54;87.87;101743.59;6105950;23;20002;-69
2022/10/13 00:32:10;;;;;;;22.67;5.65;;;;;;;9.62;87.33;101741.94;6130803;23;20100;-71
2022/10/13 00:34:36;;;;;;;20.10;5.50;;;;;;;9.62;87.73;101735.66;6105336;23;20508;-69
2022/10/13 00:37:03;;;;;;;25.30;4.57;;;;;;;9.58;87.87;101728.81;6130594;23;20080;-69
2022/10/13 00:39:28;;;;;;;18.67;4.57;;;;;;;9.59;88.08;101741.34;6105422;23;20002;-69
2022/10/13 00:41:54;;;;;;;22.23;4.40;;;;;;;9.63;87.90;101727.44;6105029;23;20064;-70
2022/10/13 00:44:58;;;;;;;21.48;5.03;;;;;;;9.59;88.13;101730.53;6105852;23;20002;-70
2022/10/13 00:47:25;;;;;;;21.98;4.65;;;;;;;9.54;88.58;101727.38;6130869;23;20002;-69
2022/10/13 00:49:52;;;;;;;19.08;4.32;;;;;;;9.56;88.56;101730.78;6105604;23;20001;-70
2022/10/13 00:52:19;;;;;;;24.10;4.47;;;;;;;9.59;88.37;101725.13;6131970;23;20056;-70
2022/10/13 00:54:46;;;;;;;17.95;4.93;;;;;;;9.46;88.19;101715.38;6105925;23;20001;-70
2022/10/13 00:57:12;;;;;;;16.00;4.85;;;;;;;9.49;88.58;101725.91;6129720;23;20041;-69
2022/10/13 00:59:38;;;;;;;17.90;5.68;;;;;;;9.32;89.63;101718.34;6106450;23;20006;-70
2022/10/13 01:02:04;;;;;;;19.50;4.93;;;;;;;9.49;89.23;101720.50;6105239;23;20006;-69
2022/10/13 01:04:36;;;;;;;17.55;4.95;;;;;;;9.32;88.87;101723.75;6107143;23;20037;-69
2022/10/13 01:07:02;;;;;;;19.00;4.93;;;;;;;9.37;88.72;101721.53;6106302;23;20013;-70
2022/10/13 01:09:34;;;;;;;19.17;4.85;;;;;;;9.37;88.42;101710.72;6130479;23;20028;-69
2022/10/13 01:12:21;;;;;;;14.93;4.22;;;;;;;9.31;89.22;101713.94;6131251;23;20090;-70
2022/10/13 01:14:53;;;;;;;22.38;4.13;;;;;;;9.18;89.65;101710.56;6132881;23;20006;-70
2022/10/13 01:17:36;;;;;;;18.45;4.22;;;;;;;9.27;89.37;101715.22;6131670;23;20159;-71
2022/10/13 01:20:34;;;;;;;19.13;4.72;;;;;;;9.26;89.68;101713.50;6107088;23;20009;-71
2022/10/13 01:23:24;;;;;;;20.98;4.65;;;;;;;9.23;88.82;101708.31;6131459;23;20012;-70
2022/10/13 01:26:08;;;;;;;27.40;4.82;;;;;;;9.19;89.08;101706.84;6131428;23;19998;-70
2022/10/13 01:28:51;;;;;;;18.40;5.10;;;;;;;9.17;89.61;101711.53;6130961;23;20006;-71
2022/10/13 01:31:33;;;;;;;23.92;5.75;;;;;;;9.17;88.88;101703.44;6132450;23;20029;-70
2022/10/13 01:33:58;;;;;;;15.60;4.70;;;;;;;8.90;90.48;101702.06;6132884;23;20009;-70
2022/10/13 01:36:37;;;;;;;22.00;5.00;;;;;;;8.87;90.73;101698.78;6130940;23;20001;-70
2022/10/13 01:39:12;;;;;;;19.70;4.32;;;;;;;8.87;90.74;101702.31;6106926;23;20009;-70
2022/10/13 01:41:41;;;;;;;20.63;5.35;;;;;;;8.80;91.26;101706.53;6131307;23;20010;-70
2022/10/13 01:44:31;;;;;;;31.25;5.63;;;;;;;8.76;91.13;101705.03;6106382;23;20044;-70
2022/10/13 01:46:59;;;;;;;21.88;5.18;;;;;;;8.83;90.73;101706.25;6131587;23;20008;-71
2022/10/13 01:49:29;;;;;;;18.95;5.22;;;;;;;8.69;91.33;101693.03;6133275;23;20115;-70
2022/10/13 01:52:00;;;;;;;20.13;5.68;;;;;;;8.47;92.40;101693.06;6132849;23;20006;-70
2022/10/13 01:54:25;;;;;;;23.75;5.25;;;;;;;8.33;92.93;101688.75;6131914;23;20006;-70
2022/10/13 01:56:55;;;;;;;15.15;4.90;;;;;;;8.29;93.24;101690.00;6132984;23;20006;-70
2022/10/13 01:59:23;;;;;;;18.40;4.97;;;;;;;8.24;93.67;101687.66;6132979;23;20004;-70
2022/10/13 02:02:07;;;;;;;19.38;5.50;;;;;;;8.20;94.14;101679.91;6107250;23;20001;-70
2022/10/13 02:05:07;;;;;;;43.30;7.30;;;;;;;8.29;93.59;101680.06;6133498;23;20081;-70
2022/10/13 02:07:55;;;;;;;25.98;5.90;;;;;;;8.16;93.99;101672.09;6121638;23;20009;-70
2022/10/13 02:10:34;;;;;;;25.52;6.60;;;;;;;8.31;93.60;101672.69;6106531;23;20444;-70
2022/10/13 02:13:05;;;;;;;25.70;6.25;;;;;;;8.41;92.86;101676.41;6106559;23;20045;-70
2022/10/13 02:15:42;;;;;;;12.75;5.47;;;;;;;8.37;92.90;101672.22;6106647;23;20033;-70
2022/10/13 02:18:11;;;;;;;17.77;5.32;;;;;;;8.46;92.97;101672.44;6105976;23;20508;-70
2022/10/13 02:20:40;;;;;;;22.73;7.03;;;;;;;8.38;93.02;101673.06;6106246;23;20053;-71
2022/10/13 02:23:10;;;;;;;21.35;5.55;;;;;;;8.33;93.46;101676.09;6105446;23;20001;-71
2022/10/13 02:25:37;;;;;;;25.50;5.22;;;;;;;8.46;92.70;101664.34;6105908;23;20005;-70
2022/10/13 02:28:03;;;;;;;20.02;5.57;;;;;;;8.43;92.92;101666.31;6106212;23;20076;-70
2022/10/13 02:30:32;;;;;;;19.13;5.70;;;;;;;8.41;92.52;101668.31;6132354;23;20002;-70
2022/10/13 02:32:58;;;;;;;21.08;5.40;;;;;;;8.28;93.33;101662.16;6106116;23;20073;-71
2022/10/13 02:35:24;;;;;;;27.65;6.43;;;;;;;8.22;93.65;101662.66;6106069;23;20002;-71
2022/10/13 02:37:49;;;;;;;21.55;5.53;;;;;;;8.27;93.65;101649.63;6106701;23;20001;-71
2022/10/13 02:40:15;;;;;;;18.95;5.18;;;;;;;8.25;93.41;101648.91;6132183;23;20009;-71
2022/10/13 02:42:40;;;;;;;21.75;6.05;;;;;;;8.16;94.09;101646.94;6130394;23;20129;-71
2022/10/13 02:45:06;;;;;;;26.70;5.75;;;;;;;8.17;94.60;101648.66;6105778;23;20048;-71
2022/10/13 02:47:31;;;;;;;17.15;6.15;;;;;;;8.18;94.17;101650.38;6105906;23;20002;-70
2022/10/13 02:49:57;;;;;;;19.20;6.18;;;;;;;8.08;94.89;101652.09;6132175;23;20053;-70
2022/10/13 02:52:22;;;;;;;25.90;6.70;;;;;;;8.10;94.93;101642.91;6131524;23;20009;-69
2022/10/13 02:54:48;;;;;;;27.58;6.15;;;;;;;8.15;94.77;101635.31;6130185;23;20001;-69
2022/10/13 02:57:13;;;;;;;20.63;6.43;;;;;;;8.09;95.02;101645.75;6129769;23;20006;-69
2022/10/13 02:59:38;;;;;;;20.42;6.10;;;;;;;8.04;95.57;101638.00;6105341;23;20002;-69
2022/10/13 03:02:04;;;;;;;19.42;6.50;;;;;;;8.18;95.41;101644.97;6105957;23;20045;-69
2022/10/13 03:04:29;;;;;;;19.55;6.60;;;;;;;8.07;95.43;101642.28;6131848;23;20084;-71
2022/10/13 03:06:54;;;;;;;25.05;6.78;;;;;;;7.97;96.00;101646.72;6130243;23;20026;-69
2022/10/13 03:09:20;;;;;;;24.67;6.07;;;;;;;7.94;96.60;101638.84;6131437;23;19998;-70
2022/10/13 03:11:45;;;;;;;19.70;6.03;;;;;;;8.06;96.45;101630.63;6105670;23;20073;-70
2022/10/13 03:14:10;;;;;;;20.05;5.97;;;;;;;8.19;95.88;101630.50;6131089;23;20006;-70
2022/10/13 03:16:36;;;;;;;21.48;6.47;;;;;;;8.09;96.19;101627.72;6132035;23;20484;-70
2022/10/13 03:19:04;;;;;;;26.52;7.10;;;;;;;8.08;96.17;101627.81;6131491;23;20009;-70
2022/10/13 03:21:29;;;;;;;31.10;6.68;;;;;;;7.99;96.70;101628.56;6105172;23;20002;-69
2022/10/13 03:23:55;;;;;;;28.77;7.25;;;;;;;8.07;96.99;101631.50;6131248;23;20012;-69
2022/10/13 03:26:20;;;;;;;18.50;6.55;;;;;;;8.18;96.57;101628.78;6131497;23;20013;-70
2022/10/13 03:28:50;;;;;;;24.35;7.00;;;;;;;8.10;96.54;101620.47;6131324;23;20002;-70
2022/10/13 03:31:16;;;;;;;21.40;6.90;;;;;;;7.83;98.16;101619.00;6105114;23;20006;-70
2022/10/13 03:33:42;;;;;;;21.02;6.35;;;;;;;8.00;97.50;101624.88;6131113;23;20049;-69
2022/10/13 03:36:10;;;;;;;25.55;6.93;;;;;;;8.07;97.18;101615.31;6130989;23;20001;-69
2022/10/13 03:38:35;;;;;;;26.70;7.28;;;;;;;7.92;97.28;101627.34;6131235;23;20452;-69
2022/10/13 03:41:05;;;;;;;26.38;7.05;;;;;;;7.84;98.37;101625.25;6105661;23;20005;-68
2022/10/13 03:43:31;;;;;;;17.80;6.93;;;;;;;7.87;97.89;101631.25;6129589;23;20013;-70
2022/10/13 03:45:58;;;;;;;34.90;7.70;;;;;;;8.02;97.46;101615.69;6129435;23;20005;-69
2022/10/13 03:48:23;;;;;;;17.27;6.45;;;;;;;7.99;97.34;101623.16;6104982;23;20006;-70
2022/10/13 03:50:49;;;;;;;15.02;6.45;;;;;;;7.99;97.69;101623.16;6104630;23;20016;-70
2022/10/13 03:53:14;;;;;;;21.42;6.75;;;;;;;8.01;97.12;101622.06;6131217;23;20013;-71
2022/10/13 03:55:40;;;;;;;29.95;7.50;;;;;;;8.14;97.43;101616.53;6130210;23;20002;-70
2022/10/13 03:58:05;;;;;;;28.58;7.10;;;;;;;8.11;96.75;101611.41;6105348;23;20002;-70
2022/10/13 04:00:31;;;;;;;24.75;7.38;;;;;;;7.97;97.06;101617.06;6105609;23;20013;-70
2022/10/13 04:02:56;;;;;;;24.50;6.95;;;;;;;8.01;97.50;101615.81;6105717;23;20085;-70
2022/10/13 04:05:21;;;;;;;27.77;6.90;;;;;;;7.97;98.22;101611.66;6105542;23;20004;-71
2022/10/13 04:07:47;;;;;;;24.42;6.47;;;;;;;8.02;97.88;101617.50;6130795;23;20048;-70
2022/10/13 04:10:12;;;;;;;22.05;7.35;;;;;;;8.12;97.92;101613.09;6129890;23;19994;-70
2022/10/13 04:12:37;;;;;;;22.70;6.97;;;;;;;8.12;97.36;101618.50;6129757;23;20011;-70
2022/10/13 04:15:03;;;;;;;21.45;7.50;;;;;;;8.20;97.03;101616.03;6104010;23;20002;-69
2022/10/13 04:17:28;;;;;;;21.63;6.97;;;;;;;8.27;96.97;101611.84;6128177;23;20002;-70
2022/10/13 04:19:54;;;;;;;23.40;7.55;;;;;;;8.19;97.20;101614.31;6128477;23;19998;-70
2022/10/13 04:22:19;;;;;;;28.10;8.25;;;;;;;8.19;97.00;101608.94;6130003;23;20505;-71
2022/10/13 04:24:45;;;;;;;24.58;7.22;;;;;;;8.17;97.53;101616.28;6128931;23;20001;-71
2022/10/13 04:27:11;;;;;;;25.63;6.82;;;;;;;8.27;96.78;101606.44;6128310;23;20033;-70
2022/10/13 04:29:36;;;;;;;23.50;7.38;;;;;;;8.29;97.08;101607.22;6130024;23;20500;-70
2022/10/13 04:32:01;;;;;;;31.45;8.10;;;;;;;8.39;96.68;101605.47;6129669;23;20005;-70
2022/10/13 04:34:27;;;;;;;31.60;8.52;;;;;;;8.41;96.65;101603.53;6130183;23;19998;-70
2022/10/13 04:36:52;;;;;;;25.20;7.13;;;;;;;8.26;97.34;101604.75;6129659;23;20006;-70
2022/10/13 04:39:18;;;;;;;26.55;7.45;;;;;;;8.35;96.86;101604.03;6127983;23;20002;-70
2022/10/13 04:41:43;;;;;;;22.73;7.80;;;;;;;8.30;96.77;101600.81;6128197;23;20092;-70
2022/10/13 04:44:09;;;;;;;24.83;7.97;;;;;;;8.33;96.89;101599.69;6103613;23;20006;-70
2022/10/13 04:46:34;;;;;;;24.75;7.65;;;;;;;8.21;97.18;101595.31;6129499;23;20002;-70
2022/10/13 04:49:00;;;;;;;32.90;8.15;;;;;;;8.10;97.94;101593.50;6129564;23;20013;-70
2022/10/13 04:51:25;;;;;;;21.38;8.00;;;;;;;8.10;98.30;101601.59;6129700;23;20002;-69
2022/10/13 04:53:56;;;;;;;28.25;9.73;;;;;;;8.10;98.05;101596.19;6122186;23;20006;-70
2022/10/13 04:56:22;;;;;;;26.75;8.73;;;;;;;7.89;99.27;101596.97;6158333;23;20013;-69
2022/10/13 04:58:48;;;;;;;26.10;7.88;;;;;;;7.99;99.04;101602.44;6133062;23;20100;-69
2022/10/13 05:01:17;;;;;;;30.17;8.98;;;;;;;7.87;99.82;101598.91;6133009;23;20056;-70
2022/10/13 05:03:42;;;;;;;24.30;7.35;;;;;;;7.95;99.32;101600.97;6133224;23;20010;-70
2022/10/13 05:06:20;;;;;;;31.80;8.52;;;;;;;7.81;99.84;101598.53;6133312;23;20110;-70
2022/10/13 05:08:46;;;;;;;25.75;8.70;;;;;;;7.92;99.95;101594.97;6133855;23;20452;-70
2022/10/13 05:11:11;;;;;;;26.70;8.15;;;;;;;7.88;99.39;101589.81;6133140;23;19997;-70
2022/10/13 05:13:36;;;;;;;30.30;8.85;;;;;;;7.86;99.58;101591.78;6131277;23;20002;-70
2022/10/13 05:16:09;;;;;;;21.50;9.07;;;;;;;7.86;99.94;101586.41;6131901;23;20016;-71
2022/10/13 05:18:36;;;;;;;25.55;8.75;;;;;;;7.80;99.92;101586.88;6133017;23;20080;-71
2022/10/13 05:21:13;;;;;;;22.70;8.73;;;;;;;7.81;100.00;101577.81;6159376;23;20029;-71
2022/10/13 05:23:39;;;;;;;29.23;8.50;;;;;;;7.82;100.00;101579.56;6159472;23;20128;-71
2022/10/13 05:26:10;;;;;;;30.92;8.48;;;;;;;7.87;100.00;101582.72;6133167;23;19997;-71
2022/10/13 05:28:36;;;;;;;26.52;8.85;;;;;;;7.93;99.90;101575.13;6157630;23;19997;-70
2022/10/13 05:31:16;;;;;;;31.13;9.88;;;;;;;8.21;99.10;101574.56;6133017;23;20052;-71
2022/10/13 05:33:42;;;;;;;20.90;8.60;;;;;;;8.10;99.30;101574.63;6132814;23;20013;-71
2022/10/13 05:36:17;;;;;;;35.10;9.55;;;;;;;8.21;98.63;101571.88;6157863;23;19998;-70
2022/10/13 05:38:43;;;;;;;18.85;8.40;;;;;;;8.17;98.67;101562.34;6157125;23;20021;-70
2022/10/13 05:41:11;;;;;;;14.27;7.53;;;;;;;8.13;98.99;101555.47;6158779;23;19997;-70
2022/10/13 05:43:38;;;;;;;31.10;8.45;;;;;;;8.23;98.59;101561.84;6158744;23;20119;-70
2022/10/13 05:46:04;;;;;;;29.27;9.98;;;;;;;8.27;98.52;101563.28;6157328;23;20001;-71
2022/10/13 05:48:30;;;;;;;26.67;9.32;;;;;;;8.13;98.72;101561.72;6157779;23;20068;-71
2022/10/13 05:50:58;;;;;;;23.10;9.13;;;;;;;8.21;98.84;101569.19;6133419;23;20032;-71
2022/10/13 05:53:26;;;;;;;29.80;9.90;;;;;;;8.11;99.19;101552.06;6144287;23;20068;-70
2022/10/13 05:55:55;;;;;;;20.33;8.60;;;;;;;8.25;98.59;101556.31;6129330;23;20085;-71
2022/10/13 05:58:21;;;;;;;32.28;9.52;;;;;;;8.31;98.46;101548.56;6130797;23;20040;-71
2022/10/13 06:00:46;;;;;;;28.30;9.93;;;;;;;8.26;98.43;101528.34;6105449;23;20002;-71
2022/10/13 06:03:16;;;;;;;27.65;10.70;;;;;;;8.25;98.96;101532.88;6131568;23;20129;-71
2022/10/13 06:05:44;;;;;;;24.08;9.50;;;;;;;8.28;98.95;101526.38;6105827;23;20006;-71
2022/10/13 06:08:09;;;;;;;23.95;9.30;;;;;;;8.23;98.99;101534.88;6130935;23;20002;-71
2022/10/13 06:10:40;;;;;;;32.97;10.50;;;;;;;8.18;99.35;101525.44;6129862;23;20037;-70
2022/10/13 06:13:05;;;;;;;25.77;9.70;;;;;;;8.33;98.87;101519.59;6104849;23;20349;-70
2022/10/13 06:15:31;;;;;;;31.55;10.15;;;;;;;8.42;99.03;101526.13;6128074;23;20089;-70
2022/10/13 06:17:59;;;;;;;27.83;10.07;;;;;;;8.34;98.57;101515.91;6105847;23;20052;-70
2022/10/13 06:20:26;;;;;;;34.65;11.63;;;;;;;8.38;98.65;101511.19;6132001;23;20002;-71
2022/10/13 06:22:54;;;;;;;39.83;10.00;;;;;;;8.57;98.25;101521.28;6105581;23;20002;-72
2022/10/13 06:25:19;;;;;;;30.88;10.75;;;;;;;8.59;97.94;101520.16;6105876;23;20005;-72
2022/10/13 06:27:44;;;;;;;32.08;9.77;;;;;;;8.59;98.26;101532.78;6105598;23;20093;-71
2022/10/13 06:30:10;;;;;;;25.13;9.40;;;;;;;8.67;97.91;101533.00;6106193;23;20012;-71
2022/10/13 06:32:36;;;;;;;28.80;10.63;;;;;;;8.74;97.45;101528.81;6130371;23;20032;-71
2022/10/13 06:35:02;;;;;;;30.98;11.23;;;;;;;8.63;98.00;101531.56;6132047;23;20028;-71
2022/10/13 06:37:27;;;;;;;26.10;9.55;;;;;;;8.64;98.37;101533.28;6132866;23;20089;-71
2022/10/13 06:39:52;;;;;;;21.80;9.27;;;;;;;8.88;97.58;101525.78;6131626;23;20008;-71
2022/10/13 06:42:18;;;;;;;19.70;9.30;;;;;;;8.80;97.10;101531.00;6130244;23;20014;-71
2022/10/13 06:44:43;;;;;;;28.25;10.50;;;;;;;8.63;98.84;101534.25;6130077;23;20083;-72
2022/10/13 06:47:09;;;;;;;23.17;9.98;;;;;;;9.01;97.35;101538.25;6106082;23;20024;-71
2022/10/13 06:49:34;;;;;;;26.38;9.77;;;;;;;8.91;97.01;101547.13;6131830;23;20002;-71
2022/10/13 06:51:59;;;;;;;30.05;10.13;;;;;;;8.88;97.60;101552.81;6130558;23;20010;-69
2022/10/13 06:54:25;;;;;;;38.17;10.77;;;;;;;8.76;97.96;101545.75;6130765;23;20044;-71
2022/10/13 06:56:50;;;;;;;25.25;10.52;;;;;;;8.58;99.27;101555.38;6105660;23;19998;-70
2022/10/13 06:59:16;;;;;;;25.45;10.68;;;;;;;8.36;100.00;101551.78;6103549;23;20013;-70
2022/10/13 07:01:42;;;;;;;29.88;10.45;;;;;;;8.43;100.00;101542.19;6095363;23;20044;-70
2022/10/13 07:04:08;;;;;;;25.40;10.73;;;;;;;8.72;100.00;101538.88;6098250;23;20001;-71
2022/10/13 07:06:34;;;;;;;26.63;10.45;;;;;;;8.84;99.11;101537.84;6098605;23;20432;-70
2022/10/13 07:09:04;;;;;;;25.75;10.27;;;;;;;9.20;97.54;101531.13;6099014;23;19998;-71
2022/10/13 07:11:29;;;;;;;19.83;9.88;;;;;;;9.39;96.98;101530.38;6124334;23;20057;-70
2022/10/13 07:13:55;;;;;;;28.52;10.10;;;;;;;9.59;95.72;101525.06;6122755;23;19997;-70
2022/10/13 07:16:20;;;;;;;30.50;10.05;;;;;;;9.59;94.98;101525.06;6127974;23;20060;-70
2022/10/13 07:18:46;;;;;;;26.30;10.13;;;;;;;9.57;95.22;101521.63;6122509;23;20315;-70
2022/10/13 07:21:12;;;;;;;26.98;9.77;;;;;;;9.69;94.61;101524.09;6122525;23;19998;-70
2022/10/13 07:23:37;;;;;;;25.67;9.82;;;;;;;9.58;95.52;101523.31;6098731;23;20024;-70
2022/10/13 07:26:11;;;;;;;27.48;10.63;;;;;;;9.65;95.41;101529.91;6123877;23;20066;-70
2022/10/13 07:28:38;;;;;;;33.80;10.00;;;;;;;9.63;95.54;101521.06;6088295;23;20370;-70
2022/10/13 07:31:10;;;;;;;30.75;11.02;;;;;;;9.59;95.26;101520.50;6098187;23;19998;-70
2022/10/13 07:33:37;;;;;;;29.73;11.07;;;;;;;9.62;95.83;101522.94;6098815;23;20013;-70
2022/10/13 07:36:05;;;;;;;27.65;10.98;;;;;;;9.62;95.56;101530.19;6088385;23;20022;-70
2022/10/13 07:38:30;;;;;;;25.33;10.32;;;;;;;9.64;95.80;101517.38;6098207;23;20006;-72
2022/10/13 07:41:00;;;;;;;28.20;11.82;;;;;;;9.63;96.25;101516.53;6125433;23;20010;-71
2022/10/13 07:43:25;;;;;;;35.17;11.63;;;;;;;9.77;95.96;101518.00;6098602;23;20085;-71
2022/10/13 07:45:50;;;;;;;23.05;11.20;;;;;;;9.82;95.15;101504.91;6097963;23;20045;-71
2022/10/13 07:48:16;;;;;;;30.20;10.48;;;;;;;9.98;94.75;101505.25;6125249;23;20002;-71
2022/10/13 07:50:42;;;;;;;40.92;11.68;;;;;;;10.12;93.79;101492.34;6098368;23;20421;-71
2022/10/13 07:53:07;;;;;;;29.70;11.57;;;;;;;10.18;93.95;101505.31;6103193;23;20085;-71
2022/10/13 07:55:33;;;;;;;25.55;11.52;;;;;;;9.89;94.57;101506.06;6122942;23;19998;-71
2022/10/13 07:58:01;;;;;;;32.35;11.18;;;;;;;9.95;94.59;101521.75;6121888;23;20006;-71
2022/10/13 08:00:26;;;;;;;33.92;12.25;;;;;;;10.01;94.89;101521.19;6124603;23;20010;-71
2022/10/13 08:02:51;;;;;;;37.10;12.00;;;;;;;10.11;94.47;101514.97;6121904;23;20016;-71
2022/10/13 08:05:17;;;;;;;34.72;12.15;;;;;;;9.94;94.82;101520.06;6124036;23;20002;-72
2022/10/13 08:07:43;;;;;;;30.55;11.52;;;;;;;10.02;95.71;101516.66;6124846;23;20016;-71
2022/10/13 08:10:08;;;;;;;29.23;12.02;;;;;;;10.32;93.98;101511.19;6122284;23;19998;-71
2022/10/13 08:12:35;;;;;;;31.65;10.07;;;;;;;10.53;93.13;101519.16;6124620;23;20005;-71
2022/10/13 08:15:00;;;;;;;35.80;12.35;;;;;;;10.25;94.11;101514.59;6122577;23;20055;-71
2022/10/13 08:17:25;;;;;;;38.25;13.40;;;;;;;10.41;93.64;101517.59;6122302;23;20006;-71
2022/10/13 08:19:51;;;;;;;32.65;11.20;;;;;;;10.44;94.31;101506.50;6123114;23;20040;-71
2022/10/13 08:22:16;;;;;;;29.48;13.10;;;;;;;10.42;94.05;101522.00;6123791;23;20013;-71
2022/10/13 08:24:42;;;;;;;26.83;12.38;;;;;;;10.54;93.96;101501.91;6124498;23;19998;-70
2022/10/13 08:27:19;;;;;;;30.40;12.18;;;;;;;10.51;94.03;101502.22;6122157;23;20001;-71
2022/10/13 08:29:44;;;;;;;32.25;12.57;;;;;;;10.57;93.85;101496.25;6122253;23;19998;-71
2022/10/13 08:32:10;;;;;;;32.67;12.40;;;;;;;10.81;93.16;101497.63;6123366;23;20005;-71
2022/10/13 08:34:36;;;;;;;28.70;12.55;;;;;;;11.08;92.30;101489.63;6122963;23;20017;-71
2022/10/13 08:37:01;;;;;;;29.15;12.02;;;;;;;11.29;91.45;101491.25;6122062;23;20001;-72
2022/10/13 08:39:27;;;;;;;29.10;12.15;;;;;;;11.22;90.64;101499.13;6122220;23;20006;-71
2022/10/13 08:41:55;;;;;;;29.42;12.02;;;;;;;10.99;92.08;101490.47;6124183;23;20009;-71
2022/10/13 08:44:35;;;;;;;37.50;13.77;;;;;;;10.88;92.79;101493.34;6122562;23;20002;-71
2022/10/13 08:47:10;;;;;;;35.20;12.82;;;;;;;11.21;91.96;101493.84;6122028;23;20521;-73
2022/10/13 08:49:35;;;;;;;38.55;13.57;;;;;;;11.12;92.12;101496.44;6122036;23;20465;-71
2022/10/13 08:52:04;;;;;;;34.13;14.75;;;;;;;10.90;93.35;101499.47;6124233;23;20018;-71
2022/10/13 08:54:30;;;;;;;37.75;14.05;;;;;;;10.95;94.20;101501.75;6121306;23;20009;-71
2022/10/13 08:56:57;;;;;;;38.75;14.20;;;;;;;11.09;93.06;101496.75;6122535;23;20353;-71
2022/10/13 08:59:23;;;;;;;35.33;13.50;;;;;;;11.19;93.29;101485.00;6123347;23;20044;-71
2022/10/13 09:01:52;;;;;;;39.45;14.20;;;;;;;11.39;92.04;101492.06;6123073;23;20002;-72
2022/10/13 09:04:30;;;;;;;42.10;15.45;;;;;;;11.33;92.71;101508.91;6121127;23;20028;-70
2022/10/13 09:06:57;;;;;;;34.38;14.55;;;;;;;11.33;92.92;101514.34;6113153;23;20056;-71
2022/10/13 09:09:23;;;;;;;36.40;14.80;;;;;;;11.39;92.60;101502.91;6124318;23;20014;-71
2022/10/13 09:11:50;;;;;;;34.47;13.73;;;;;;;11.75;92.04;101497.63;6122928;23;20017;-71
2022/10/13 09:14:26;;;;;;;40.65;15.07;;;;;;;11.93;91.15;101485.84;6122299;23;20076;-71
2022/10/13 09:16:53;;;;;;;32.05;13.98;;;;;;;12.05;90.22;101483.75;6124133;23;20084;-71
2022/10/13 09:19:24;;;;;;;43.15;15.98;;;;;;;12.12;89.30;101490.28;6121472;23;20081;-71
2022/10/13 09:21:51;;;;;;;40.40;16.50;;;;;;;11.94;91.47;101479.41;6121991;23;20326;-71
2022/10/13 09:24:19;;;;;;;52.88;15.27;;;;;;;11.90;91.57;101477.16;6121925;23;20037;-70
2022/10/13 09:26:47;;;;;;;34.95;15.07;;;;;;;12.00;91.60;101464.38;6121176;23;20444;-71
2022/10/13 09:29:19;;;;;;;34.80;15.18;;;;;;;12.34;90.52;101467.28;6120809;23;19998;-71
2022/10/13 09:31:45;;;;;;;40.72;14.60;;;;;;;12.71;89.53;101475.25;6121942;23;20013;-71
2022/10/13 09:34:22;;;;;;;31.85;14.93;;;;;;;12.71;88.05;101475.25;6126519;23;20041;-71
2022/10/13 09:37:04;;;;;;;34.70;15.98;;;;;;;12.43;89.60;101476.34;6125063;23;20002;-70
2022/10/13 09:39:31;;;;;;;26.92;14.88;;;;;;;12.53;90.06;101477.13;6126116;23;20006;-70
2022/10/13 09:42:20;;;;;;;40.60;15.75;;;;;;;12.59;89.70;101487.38;6123997;23;20013;-71
2022/10/13 09:44:47;;;;;;;39.47;15.82;;;;;;;12.46;89.83;101487.75;6126903;23;20010;-72
2022/10/13 09:47:20;;;;;;;33.67;14.93;;;;;;;12.96;89.33;101478.13;6124796;23;20077;-71
2022/10/13 09:50:02;;;;;;;42.65;15.60;;;;;;;13.39;86.75;101474.53;6123965;23;19994;-72
2022/10/13 09:52:30;;;;;;;38.50;14.98;;;;;;;13.47;86.29;101481.88;6125788;23;20010;-72
2022/10/13 09:54:59;;;;;;;30.40;15.35;;;;;;;13.65;85.12;101469.06;6100221;23;20008;-73
2022/10/13 09:57:46;;;;;;;31.77;15.32;;;;;;;13.53;85.56;101476.66;6100610;23;19998;-71
2022/10/13 10:00:15;;;;;;;43.67;15.18;;;;;;;13.79;85.23;101465.69;6124102;23;20010;-71
2022/10/13 10:03:14;;;;;;;34.67;15.43;;;;;;;13.76;84.16;101468.75;6125782;23;20012;-71
2022/10/13 10:05:49;;;;;;;32.13;14.68;;;;;;;13.52;85.66;101463.22;6114439;23;20016;-71
2022/10/13 10:08:52;;;;;;;41.30;15.63;;;;;;;13.64;86.10;101450.19;6099013;23;20097;-72
2022/10/13 10:11:25;;;;;;;35.20;13.70;;;;;;;14.05;84.45;101448.41;6123556;23;20073;-71
2022/10/13 10:13:51;;;;;;;42.40;14.98;;;;;;;14.06;83.84;101450.13;6098885;23;20330;-71
2022/10/13 10:16:16;;;;;;;33.03;14.07;;;;;;;14.29;83.34;101453.91;6126597;23;20053;-72
2022/10/13 10:18:56;;;;;;;37.60;16.00;;;;;;;14.00;84.40;101461.66;6099287;23;20006;-72
2022/10/13 10:21:26;;;;;;;36.88;15.70;;;;;;;13.84;85.75;101457.91;6098869;23;20010;-71
2022/10/13 10:24:02;;;;;;;35.20;16.17;;;;;;;13.66;85.80;101448.97;6125156;23;20100;-71
2022/10/13 10:26:47;;;;;;;36.50;15.00;;;;;;;13.64;86.48;101445.59;6099253;23;20044;-71
2022/10/13 10:29:40;;;;;;;42.40;15.82;;;;;;;13.70;86.42;101454.97;6098484;23;20009;-71
2022/10/13 10:32:27;;;;;;;34.47;14.77;;;;;;;13.76;86.79;101444.28;6125806;23;20088;-71
2022/10/13 10:35:02;;;;;;;37.97;16.45;;;;;;;13.85;86.31;101448.72;6099173;23;20025;-72
2022/10/13 10:38:02;;;;;;;35.50;14.90;;;;;;;13.93;86.29;101444.31;6099894;23;20017;-72
2022/10/13 10:40:33;;;;;;;42.65;16.20;;;;;;;14.17;85.44;101447.09;6125858;23;20030;-72
2022/10/13 10:43:17;;;;;;;34.63;15.88;;;;;;;14.09;85.94;101430.75;6098718;23;20400;-71
2022/10/13 10:45:45;;;;;;;36.45;14.23;;;;;;;13.91;86.30;101435.47;6099291;23;20401;-71
2022/10/13 10:48:20;;;;;;;33.63;16.05;;;;;;;14.12;86.52;101430.38;6098682;23;20054;-71
2022/10/13 10:50:47;;;;;;;36.97;15.80;;;;;;;14.13;86.02;101429.38;6098662;23;19998;-71
2022/10/13 10:53:35;;;;;;;39.83;15.77;;;;;;;14.06;86.43;101417.44;6096247;23;20009;-71
2022/10/13 10:56:27;;;;;;;40.03;15.85;;;;;;;14.18;86.24;101421.53;6123789;23;20084;-71
2022/10/13 10:59:20;;;;;;;29.00;14.73;;;;;;;14.11;86.77;101418.66;6123338;23;20033;-71
2022/10/13 11:02:11;;;;;;;35.90;14.68;;;;;;;14.11;86.30;101405.03;6124767;23;20002;-71
2022/10/13 11:04:40;;;;;;;32.92;13.55;;;;;;;14.31;86.35;101405.56;6124238;23;20017;-71
2022/10/13 11:07:33;;;;;;;39.92;15.50;;;;;;;14.46;85.56;101396.69;6124616;23;20008;-72
2022/10/13 11:10:20;;;;;;;39.42;15.10;;;;;;;14.72;84.33;101402.84;6127055;23;19997;-70
2022/10/13 11:12:51;;;;;;;32.30;14.88;;;;;;;14.77;84.10;101395.00;6125143;23;20005;-71
2022/10/13 11:15:30;;;;;;;27.08;14.02;;;;;;;14.80;84.20;101382.88;6125629;23;20005;-71
2022/10/13 11:17:56;;;;;;;36.53;14.32;;;;;;;14.85;84.08;101381.34;6128568;23;20002;-71
2022/10/13 11:20:23;;;;;;;36.80;14.82;;;;;;;15.14;82.46;101369.84;6123974;23;20431;-71
2022/10/13 11:22:58;;;;;;;35.05;16.33;;;;;;;15.17;82.91;101365.91;6126627;23;20015;-70
2022/10/13 11:25:46;;;;;;;29.52;14.32;;;;;;;15.37;81.67;101356.28;6127004;23;20097;-71
2022/10/13 11:28:20;;;;;;;30.25;14.40;;;;;;;15.71;80.42;101360.56;6126167;23;20006;-72
2022/10/13 11:30:46;;;;;;;35.45;14.73;;;;;;;15.41;81.18;101349.44;6124461;23;20084;-72